sensor_id;sensor_type;location;lat;lon;timestamp;P1;durP1;ratioP1;P2;durP2;ratioP2
56517;SDS011;42419;48.760;2.322;2023-03-20T00:00:49;6.10;;;4.63;;
56517;SDS011;42419;48.760;2.322;2023-03-20T00:03:16;4.90;;;4.40;;
56517;SDS011;42419;48.760;2.322;2023-03-20T00:05:42;5.10;;;4.27;;
56517;SDS011;42419;48.760;2.322;2023-03-20T00:08:07;5.00;;;4.47;;
56517;SDS011;42419;48.760;2.322;2023-03-20T00:10:34;8.00;;;4.57;;
56517;SDS011;42419;48.760;2.322;2023-03-20T00:13:03;5.27;;;4.13;;
56517;SDS011;42419;48.760;2.322;2023-03-20T00:15:36;5.50;;;4.30;;
56517;SDS011;42419;48.760;2.322;2023-03-20T00:18:05;6.10;;;4.30;;
56517;SDS011;42419;48.760;2.322;2023-03-20T00:20:37;7.10;;;4.30;;
56517;SDS011;42419;48.760;2.322;2023-03-20T00:23:02;5.93;;;4.33;;
56517;SDS011;42419;48.760;2.322;2023-03-20T00:25:28;4.40;;;3.60;;
56517;SDS011;42419;48.760;2.322;2023-03-20T00:27:53;4.57;;;4.07;;
56517;SDS011;42419;48.760;2.322;2023-03-20T00:32:50;5.07;;;4.57;;
56517;SDS011;42419;48.760;2.322;2023-03-20T00:35:17;7.13;;;4.30;;
56517;SDS011;42419;48.760;2.322;2023-03-20T00:37:47;4.77;;;4.37;;
56517;SDS011;42419;48.760;2.322;2023-03-20T00:40:13;4.40;;;3.90;;
56517;SDS011;42419;48.760;2.322;2023-03-20T00:42:39;5.97;;;4.83;;
56517;SDS011;42419;48.760;2.322;2023-03-20T00:45:05;4.67;;;4.07;;
56517;SDS011;42419;48.760;2.322;2023-03-20T00:47:36;4.50;;;3.83;;
56517;SDS011;42419;48.760;2.322;2023-03-20T00:50:16;6.23;;;4.90;;
56517;SDS011;42419;48.760;2.322;2023-03-20T00:52:44;4.30;;;3.90;;
56517;SDS011;42419;48.760;2.322;2023-03-20T00:55:10;4.37;;;4.00;;
56517;SDS011;42419;48.760;2.322;2023-03-20T00:57:41;4.67;;;4.17;;
56517;SDS011;42419;48.760;2.322;2023-03-20T01:02:46;6.10;;;4.27;;
56517;SDS011;42419;48.760;2.322;2023-03-20T01:05:11;6.57;;;4.30;;
56517;SDS011;42419;48.760;2.322;2023-03-20T01:07:37;4.33;;;3.80;;
56517;SDS011;42419;48.760;2.322;2023-03-20T01:10:04;4.33;;;3.90;;
56517;SDS011;42419;48.760;2.322;2023-03-20T01:12:30;4.50;;;4.00;;
56517;SDS011;42419;48.760;2.322;2023-03-20T01:14:56;3.97;;;3.57;;
56517;SDS011;42419;48.760;2.322;2023-03-20T01:17:23;4.17;;;3.70;;
56517;SDS011;42419;48.760;2.322;2023-03-20T01:19:50;6.00;;;4.07;;
56517;SDS011;42419;48.760;2.322;2023-03-20T01:22:16;5.37;;;4.37;;
56517;SDS011;42419;48.760;2.322;2023-03-20T01:24:44;3.87;;;3.47;;
56517;SDS011;42419;48.760;2.322;2023-03-20T01:27:15;4.57;;;4.10;;
56517;SDS011;42419;48.760;2.322;2023-03-20T01:29:42;4.50;;;3.67;;
56517;SDS011;42419;48.760;2.322;2023-03-20T01:32:10;4.93;;;4.43;;
56517;SDS011;42419;48.760;2.322;2023-03-20T01:34:38;4.33;;;3.93;;
56517;SDS011;42419;48.760;2.322;2023-03-20T01:37:05;5.03;;;4.20;;
56517;SDS011;42419;48.760;2.322;2023-03-20T01:39:38;5.40;;;4.17;;
56517;SDS011;42419;48.760;2.322;2023-03-20T01:42:04;4.20;;;3.73;;
56517;SDS011;42419;48.760;2.322;2023-03-20T01:44:32;4.40;;;4.00;;
56517;SDS011;42419;48.760;2.322;2023-03-20T01:46:59;4.93;;;4.43;;
56517;SDS011;42419;48.760;2.322;2023-03-20T01:51:52;4.63;;;3.70;;
56517;SDS011;42419;48.760;2.322;2023-03-20T01:54:22;3.90;;;3.60;;
56517;SDS011;42419;48.760;2.322;2023-03-20T01:57:12;6.73;;;3.83;;
56517;SDS011;42419;48.760;2.322;2023-03-20T01:59:37;4.80;;;3.83;;
56517;SDS011;42419;48.760;2.322;2023-03-20T02:02:11;4.87;;;4.00;;
56517;SDS011;42419;48.760;2.322;2023-03-20T02:04:41;5.63;;;4.63;;
56517;SDS011;42419;48.760;2.322;2023-03-20T02:07:10;4.87;;;3.80;;
56517;SDS011;42419;48.760;2.322;2023-03-20T02:09:40;5.37;;;3.70;;
56517;SDS011;42419;48.760;2.322;2023-03-20T02:12:05;5.13;;;4.10;;
56517;SDS011;42419;48.760;2.322;2023-03-20T02:14:32;5.63;;;3.70;;
56517;SDS011;42419;48.760;2.322;2023-03-20T02:16:57;5.10;;;4.00;;
56517;SDS011;42419;48.760;2.322;2023-03-20T02:19:28;5.00;;;3.60;;
56517;SDS011;42419;48.760;2.322;2023-03-20T02:22:23;4.43;;;3.47;;
56517;SDS011;42419;48.760;2.322;2023-03-20T02:27:59;4.30;;;3.90;;
56517;SDS011;42419;48.760;2.322;2023-03-20T02:30:55;4.63;;;3.97;;
56517;SDS011;42419;48.760;2.322;2023-03-20T02:46:53;5.60;;;4.23;;
56517;SDS011;42419;48.760;2.322;2023-03-20T02:51:57;4.30;;;3.90;;
56517;SDS011;42419;48.760;2.322;2023-03-20T02:54:52;4.13;;;3.27;;
56517;SDS011;42419;48.760;2.322;2023-03-20T02:57:24;4.23;;;3.77;;
56517;SDS011;42419;48.760;2.322;2023-03-20T03:02:39;4.13;;;3.60;;
56517;SDS011;42419;48.760;2.322;2023-03-20T03:05:22;4.13;;;3.70;;
56517;SDS011;42419;48.760;2.322;2023-03-20T03:07:54;4.70;;;4.00;;
56517;SDS011;42419;48.760;2.322;2023-03-20T03:10:25;4.30;;;3.90;;
56517;SDS011;42419;48.760;2.322;2023-03-20T03:12:55;3.87;;;3.57;;
56517;SDS011;42419;48.760;2.322;2023-03-20T03:15:31;3.43;;;3.13;;
56517;SDS011;42419;48.760;2.322;2023-03-20T03:18:01;4.20;;;3.70;;
56517;SDS011;42419;48.760;2.322;2023-03-20T03:20:31;3.50;;;3.13;;
56517;SDS011;42419;48.760;2.322;2023-03-20T03:22:59;4.03;;;3.60;;
56517;SDS011;42419;48.760;2.322;2023-03-20T03:25:27;3.97;;;3.67;;
56517;SDS011;42419;48.760;2.322;2023-03-20T03:28:02;4.60;;;4.13;;
56517;SDS011;42419;48.760;2.322;2023-03-20T03:30:32;4.23;;;3.83;;
56517;SDS011;42419;48.760;2.322;2023-03-20T03:33:07;4.20;;;3.23;;
56517;SDS011;42419;48.760;2.322;2023-03-20T03:35:34;4.50;;;3.83;;
56517;SDS011;42419;48.760;2.322;2023-03-20T03:38:05;4.90;;;3.77;;
56517;SDS011;42419;48.760;2.322;2023-03-20T03:41:04;5.13;;;3.63;;
56517;SDS011;42419;48.760;2.322;2023-03-20T03:46:00;3.57;;;3.27;;
56517;SDS011;42419;48.760;2.322;2023-03-20T03:48:35;6.33;;;3.90;;
56517;SDS011;42419;48.760;2.322;2023-03-20T03:51:06;5.23;;;3.40;;
56517;SDS011;42419;48.760;2.322;2023-03-20T03:53:35;4.90;;;3.90;;
56517;SDS011;42419;48.760;2.322;2023-03-20T03:56:05;5.70;;;4.00;;
56517;SDS011;42419;48.760;2.322;2023-03-20T03:58:36;4.43;;;3.77;;
56517;SDS011;42419;48.760;2.322;2023-03-20T04:01:05;3.53;;;3.20;;
56517;SDS011;42419;48.760;2.322;2023-03-20T04:03:37;3.40;;;3.10;;
56517;SDS011;42419;48.760;2.322;2023-03-20T04:06:05;4.20;;;3.80;;
56517;SDS011;42419;48.760;2.322;2023-03-20T04:08:34;3.90;;;3.50;;
56517;SDS011;42419;48.760;2.322;2023-03-20T04:10:59;3.73;;;3.43;;
56517;SDS011;42419;48.760;2.322;2023-03-20T04:13:25;3.23;;;2.93;;
56517;SDS011;42419;48.760;2.322;2023-03-20T04:15:50;4.10;;;3.63;;
56517;SDS011;42419;48.760;2.322;2023-03-20T04:18:16;3.77;;;3.40;;
56517;SDS011;42419;48.760;2.322;2023-03-20T04:20:44;3.80;;;3.43;;
56517;SDS011;42419;48.760;2.322;2023-03-20T04:23:11;4.20;;;3.43;;
56517;SDS011;42419;48.760;2.322;2023-03-20T04:25:38;3.53;;;3.23;;
56517;SDS011;42419;48.760;2.322;2023-03-20T04:28:03;3.50;;;3.20;;
56517;SDS011;42419;48.760;2.322;2023-03-20T04:30:28;3.53;;;3.23;;
56517;SDS011;42419;48.760;2.322;2023-03-20T04:32:54;3.83;;;3.53;;
56517;SDS011;42419;48.760;2.322;2023-03-20T04:35:19;4.30;;;3.43;;
56517;SDS011;42419;48.760;2.322;2023-03-20T04:37:45;3.80;;;3.40;;
56517;SDS011;42419;48.760;2.322;2023-03-20T04:40:10;3.37;;;3.07;;
56517;SDS011;42419;48.760;2.322;2023-03-20T04:42:37;4.13;;;3.60;;
56517;SDS011;42419;48.760;2.322;2023-03-20T04:45:02;4.90;;;4.03;;
56517;SDS011;42419;48.760;2.322;2023-03-20T04:47:28;4.00;;;3.60;;
56517;SDS011;42419;48.760;2.322;2023-03-20T04:49:53;3.80;;;3.40;;
56517;SDS011;42419;48.760;2.322;2023-03-20T04:52:19;3.47;;;3.17;;
56517;SDS011;42419;48.760;2.322;2023-03-20T04:54:44;3.80;;;3.40;;
56517;SDS011;42419;48.760;2.322;2023-03-20T04:57:10;5.20;;;3.90;;
56517;SDS011;42419;48.760;2.322;2023-03-20T04:59:35;4.20;;;3.80;;
56517;SDS011;42419;48.760;2.322;2023-03-20T05:02:01;4.67;;;3.30;;
56517;SDS011;42419;48.760;2.322;2023-03-20T05:04:26;4.03;;;3.63;;
56517;SDS011;42419;48.760;2.322;2023-03-20T05:06:51;3.70;;;3.40;;
56517;SDS011;42419;48.760;2.322;2023-03-20T05:09:17;3.63;;;3.00;;
56517;SDS011;42419;48.760;2.322;2023-03-20T05:11:42;4.00;;;3.60;;
56517;SDS011;42419;48.760;2.322;2023-03-20T05:14:08;5.50;;;4.57;;
56517;SDS011;42419;48.760;2.322;2023-03-20T05:16:33;4.53;;;3.37;;
56517;SDS011;42419;48.760;2.322;2023-03-20T05:18:59;4.93;;;3.83;;
56517;SDS011;42419;48.760;2.322;2023-03-20T05:21:24;3.90;;;3.60;;
56517;SDS011;42419;48.760;2.322;2023-03-20T05:23:50;3.67;;;3.37;;
56517;SDS011;42419;48.760;2.322;2023-03-20T05:26:15;3.67;;;3.37;;
56517;SDS011;42419;48.760;2.322;2023-03-20T05:28:41;4.03;;;3.63;;
56517;SDS011;42419;48.760;2.322;2023-03-20T05:31:06;6.97;;;3.53;;
56517;SDS011;42419;48.760;2.322;2023-03-20T05:33:32;5.23;;;3.83;;
56517;SDS011;42419;48.760;2.322;2023-03-20T05:35:57;3.33;;;3.03;;
56517;SDS011;42419;48.760;2.322;2023-03-20T05:38:23;3.60;;;3.30;;
56517;SDS011;42419;48.760;2.322;2023-03-20T05:40:49;4.23;;;3.47;;
56517;SDS011;42419;48.760;2.322;2023-03-20T05:43:15;3.77;;;3.37;;
56517;SDS011;42419;48.760;2.322;2023-03-20T05:45:41;3.87;;;3.23;;
56517;SDS011;42419;48.760;2.322;2023-03-20T05:48:06;4.17;;;3.40;;
56517;SDS011;42419;48.760;2.322;2023-03-20T05:50:32;3.33;;;3.03;;
56517;SDS011;42419;48.760;2.322;2023-03-20T05:52:57;4.10;;;3.20;;
56517;SDS011;42419;48.760;2.322;2023-03-20T05:55:22;4.20;;;3.77;;
56517;SDS011;42419;48.760;2.322;2023-03-20T05:57:48;3.93;;;3.53;;
56517;SDS011;42419;48.760;2.322;2023-03-20T06:00:13;4.23;;;3.83;;
56517;SDS011;42419;48.760;2.322;2023-03-20T06:02:39;4.47;;;4.07;;
56517;SDS011;42419;48.760;2.322;2023-03-20T06:05:08;3.87;;;3.43;;
56517;SDS011;42419;48.760;2.322;2023-03-20T06:07:33;5.10;;;3.27;;
56517;SDS011;42419;48.760;2.322;2023-03-20T06:09:58;3.73;;;3.33;;
56517;SDS011;42419;48.760;2.322;2023-03-20T06:12:24;4.20;;;3.80;;
56517;SDS011;42419;48.760;2.322;2023-03-20T06:14:49;5.53;;;3.03;;
56517;SDS011;42419;48.760;2.322;2023-03-20T06:17:14;3.90;;;3.60;;
56517;SDS011;42419;48.760;2.322;2023-03-20T06:19:40;3.90;;;3.27;;
56517;SDS011;42419;48.760;2.322;2023-03-20T06:22:05;3.93;;;3.53;;
56517;SDS011;42419;48.760;2.322;2023-03-20T06:24:30;6.47;;;3.70;;
56517;SDS011;42419;48.760;2.322;2023-03-20T06:26:56;4.73;;;3.53;;
56517;SDS011;42419;48.760;2.322;2023-03-20T06:29:21;4.43;;;3.23;;
56517;SDS011;42419;48.760;2.322;2023-03-20T06:31:47;3.27;;;2.97;;
56517;SDS011;42419;48.760;2.322;2023-03-20T06:34:12;3.93;;;3.53;;
56517;SDS011;42419;48.760;2.322;2023-03-20T06:36:37;3.87;;;3.27;;
56517;SDS011;42419;48.760;2.322;2023-03-20T06:39:03;7.13;;;4.00;;
56517;SDS011;42419;48.760;2.322;2023-03-20T06:41:28;5.20;;;3.40;;
56517;SDS011;42419;48.760;2.322;2023-03-20T06:43:54;4.40;;;3.30;;
56517;SDS011;42419;48.760;2.322;2023-03-20T06:46:19;3.43;;;3.00;;
56517;SDS011;42419;48.760;2.322;2023-03-20T06:48:45;4.20;;;3.43;;
56517;SDS011;42419;48.760;2.322;2023-03-20T06:51:10;3.40;;;3.10;;
56517;SDS011;42419;48.760;2.322;2023-03-20T06:53:36;3.33;;;3.03;;
56517;SDS011;42419;48.760;2.322;2023-03-20T06:56:01;3.80;;;3.00;;
56517;SDS011;42419;48.760;2.322;2023-03-20T06:58:27;4.60;;;3.27;;
56517;SDS011;42419;48.760;2.322;2023-03-20T07:00:52;3.20;;;2.90;;
56517;SDS011;42419;48.760;2.322;2023-03-20T07:03:18;5.00;;;3.43;;
56517;SDS011;42419;48.760;2.322;2023-03-20T07:05:44;3.50;;;3.13;;
56517;SDS011;42419;48.760;2.322;2023-03-20T07:08:09;7.33;;;4.40;;
56517;SDS011;42419;48.760;2.322;2023-03-20T07:10:35;3.00;;;2.70;;
56517;SDS011;42419;48.760;2.322;2023-03-20T07:13:01;3.30;;;2.80;;
56517;SDS011;42419;48.760;2.322;2023-03-20T07:15:27;4.90;;;3.67;;
56517;SDS011;42419;48.760;2.322;2023-03-20T07:17:53;4.23;;;3.30;;
56517;SDS011;42419;48.760;2.322;2023-03-20T07:20:19;7.23;;;3.53;;
56517;SDS011;42419;48.760;2.322;2023-03-20T07:22:44;4.03;;;3.63;;
56517;SDS011;42419;48.760;2.322;2023-03-20T07:25:11;4.03;;;3.20;;
56517;SDS011;42419;48.760;2.322;2023-03-20T07:27:37;5.80;;;3.60;;
56517;SDS011;42419;48.760;2.322;2023-03-20T07:30:03;4.50;;;3.60;;
56517;SDS011;42419;48.760;2.322;2023-03-20T07:32:30;3.83;;;3.40;;
56517;SDS011;42419;48.760;2.322;2023-03-20T07:34:55;5.87;;;3.53;;
56517;SDS011;42419;48.760;2.322;2023-03-20T07:37:21;3.50;;;2.83;;
56517;SDS011;42419;48.760;2.322;2023-03-20T07:39:47;6.60;;;3.43;;
56517;SDS011;42419;48.760;2.322;2023-03-20T07:42:12;5.60;;;3.60;;
56517;SDS011;42419;48.760;2.322;2023-03-20T07:44:38;7.57;;;3.00;;
56517;SDS011;42419;48.760;2.322;2023-03-20T07:47:03;4.97;;;3.43;;
56517;SDS011;42419;48.760;2.322;2023-03-20T07:49:30;5.17;;;3.20;;
56517;SDS011;42419;48.760;2.322;2023-03-20T07:51:55;3.60;;;3.17;;
56517;SDS011;42419;48.760;2.322;2023-03-20T07:54:21;5.43;;;3.37;;
56517;SDS011;42419;48.760;2.322;2023-03-20T07:56:46;4.70;;;3.40;;
56517;SDS011;42419;48.760;2.322;2023-03-20T07:59:12;5.47;;;3.53;;
56517;SDS011;42419;48.760;2.322;2023-03-20T08:01:37;4.20;;;2.70;;
56517;SDS011;42419;48.760;2.322;2023-03-20T08:04:03;4.40;;;3.00;;
56517;SDS011;42419;48.760;2.322;2023-03-20T08:06:28;5.07;;;3.40;;
56517;SDS011;42419;48.760;2.322;2023-03-20T08:08:54;4.50;;;2.80;;
56517;SDS011;42419;48.760;2.322;2023-03-20T08:11:19;3.60;;;3.30;;
56517;SDS011;42419;48.760;2.322;2023-03-20T08:13:45;4.40;;;3.07;;
56517;SDS011;42419;48.760;2.322;2023-03-20T08:16:10;4.77;;;3.33;;
56517;SDS011;42419;48.760;2.322;2023-03-20T08:18:36;4.13;;;3.23;;
56517;SDS011;42419;48.760;2.322;2023-03-20T08:21:02;5.43;;;3.27;;
56517;SDS011;42419;48.760;2.322;2023-03-20T08:23:27;4.80;;;3.37;;
56517;SDS011;42419;48.760;2.322;2023-03-20T08:25:53;5.27;;;3.00;;
56517;SDS011;42419;48.760;2.322;2023-03-20T08:28:18;4.60;;;3.37;;
56517;SDS011;42419;48.760;2.322;2023-03-20T08:30:45;7.00;;;4.13;;
56517;SDS011;42419;48.760;2.322;2023-03-20T08:33:11;6.30;;;4.37;;
56517;SDS011;42419;48.760;2.322;2023-03-20T08:35:36;5.90;;;4.17;;
56517;SDS011;42419;48.760;2.322;2023-03-20T08:38:02;8.70;;;4.17;;
56517;SDS011;42419;48.760;2.322;2023-03-20T08:40:28;5.90;;;3.80;;
56517;SDS011;42419;48.760;2.322;2023-03-20T08:42:53;7.97;;;4.30;;
56517;SDS011;42419;48.760;2.322;2023-03-20T08:45:18;5.43;;;4.30;;
56517;SDS011;42419;48.760;2.322;2023-03-20T08:47:47;5.87;;;3.97;;
56517;SDS011;42419;48.760;2.322;2023-03-20T08:50:12;5.67;;;3.67;;
56517;SDS011;42419;48.760;2.322;2023-03-20T08:52:38;5.90;;;3.53;;
56517;SDS011;42419;48.760;2.322;2023-03-20T08:55:08;4.70;;;4.17;;
56517;SDS011;42419;48.760;2.322;2023-03-20T08:57:35;5.77;;;4.30;;
56517;SDS011;42419;48.760;2.322;2023-03-20T09:00:01;4.60;;;4.07;;
56517;SDS011;42419;48.760;2.322;2023-03-20T09:02:28;12.60;;;5.60;;
56517;SDS011;42419;48.760;2.322;2023-03-20T09:04:53;6.23;;;4.30;;
56517;SDS011;42419;48.760;2.322;2023-03-20T09:07:18;6.60;;;4.63;;
56517;SDS011;42419;48.760;2.322;2023-03-20T09:09:44;9.33;;;4.93;;
56517;SDS011;42419;48.760;2.322;2023-03-20T09:12:09;4.47;;;4.07;;
56517;SDS011;42419;48.760;2.322;2023-03-20T09:14:34;6.10;;;4.30;;
56517;SDS011;42419;48.760;2.322;2023-03-20T09:17:00;5.10;;;4.50;;
56517;SDS011;42419;48.760;2.322;2023-03-20T09:19:26;5.43;;;4.30;;
56517;SDS011;42419;48.760;2.322;2023-03-20T09:21:51;4.87;;;4.23;;
56517;SDS011;42419;48.760;2.322;2023-03-20T09:24:16;4.93;;;3.73;;
56517;SDS011;42419;48.760;2.322;2023-03-20T09:26:42;5.67;;;5.17;;
56517;SDS011;42419;48.760;2.322;2023-03-20T09:29:07;13.60;;;11.50;;
56517;SDS011;42419;48.760;2.322;2023-03-20T09:31:32;31.53;;;28.33;;
56517;SDS011;42419;48.760;2.322;2023-03-20T09:33:58;38.77;;;34.83;;
56517;SDS011;42419;48.760;2.322;2023-03-20T09:36:23;38.70;;;34.87;;
56517;SDS011;42419;48.760;2.322;2023-03-20T09:38:49;35.47;;;31.87;;
56517;SDS011;42419;48.760;2.322;2023-03-20T09:41:19;30.93;;;27.93;;
56517;SDS011;42419;48.760;2.322;2023-03-20T09:43:48;29.80;;;26.90;;
56517;SDS011;42419;48.760;2.322;2023-03-20T09:46:38;26.67;;;23.97;;
56517;SDS011;42419;48.760;2.322;2023-03-20T09:49:29;27.20;;;24.40;;
56517;SDS011;42419;48.760;2.322;2023-03-20T09:52:33;25.07;;;22.57;;
56517;SDS011;42419;48.760;2.322;2023-03-20T09:55:04;23.70;;;21.33;;
56517;SDS011;42419;48.760;2.322;2023-03-20T09:57:38;23.70;;;21.30;;
56517;SDS011;42419;48.760;2.322;2023-03-20T10:00:19;22.00;;;19.80;;
56517;SDS011;42419;48.760;2.322;2023-03-20T10:02:52;20.43;;;18.43;;
56517;SDS011;42419;48.760;2.322;2023-03-20T10:05:28;24.73;;;18.10;;
56517;SDS011;42419;48.760;2.322;2023-03-20T10:07:56;20.43;;;18.17;;
56517;SDS011;42419;48.760;2.322;2023-03-20T10:12:58;18.37;;;16.47;;
56517;SDS011;42419;48.760;2.322;2023-03-20T10:15:53;16.60;;;14.97;;
56517;SDS011;42419;48.760;2.322;2023-03-20T10:18:28;15.80;;;14.20;;
56517;SDS011;42419;48.760;2.322;2023-03-20T10:21:07;18.40;;;15.40;;
56517;SDS011;42419;48.760;2.322;2023-03-20T10:23:40;14.63;;;13.17;;
56517;SDS011;42419;48.760;2.322;2023-03-20T10:26:19;13.03;;;11.67;;
56517;SDS011;42419;48.760;2.322;2023-03-20T10:28:55;13.33;;;12.13;;
56517;SDS011;42419;48.760;2.322;2023-03-20T10:31:46;13.50;;;12.10;;
56517;SDS011;42419;48.760;2.322;2023-03-20T10:39:50;11.70;;;10.60;;
56517;SDS011;42419;48.760;2.322;2023-03-20T10:42:39;10.50;;;8.87;;
56517;SDS011;42419;48.760;2.322;2023-03-20T10:48:15;8.47;;;7.30;;
56517;SDS011;42419;48.760;2.322;2023-03-20T10:50:52;8.80;;;7.70;;
56517;SDS011;42419;48.760;2.322;2023-03-20T10:53:25;6.00;;;5.20;;
56517;SDS011;42419;48.760;2.322;2023-03-20T10:56:10;7.43;;;6.70;;
56517;SDS011;42419;48.760;2.322;2023-03-20T10:58:40;5.00;;;4.27;;
56517;SDS011;42419;48.760;2.322;2023-03-20T11:01:08;6.00;;;3.70;;
56517;SDS011;42419;48.760;2.322;2023-03-20T11:03:34;4.50;;;3.40;;
56517;SDS011;42419;48.760;2.322;2023-03-20T11:08:52;4.73;;;2.87;;
56517;SDS011;42419;48.760;2.322;2023-03-20T11:11:25;7.40;;;3.10;;
56517;SDS011;42419;48.760;2.322;2023-03-20T11:13:54;5.40;;;2.70;;
56517;SDS011;42419;48.760;2.322;2023-03-20T11:16:21;6.77;;;2.47;;
56517;SDS011;42419;48.760;2.322;2023-03-20T11:18:49;4.43;;;2.60;;
56517;SDS011;42419;48.760;2.322;2023-03-20T11:21:26;3.60;;;2.17;;
56517;SDS011;42419;48.760;2.322;2023-03-20T11:23:55;8.23;;;2.60;;
56517;SDS011;42419;48.760;2.322;2023-03-20T11:26:31;3.70;;;2.50;;
56517;SDS011;42419;48.760;2.322;2023-03-20T11:29:01;5.27;;;2.73;;
56517;SDS011;42419;48.760;2.322;2023-03-20T11:31:33;4.17;;;2.53;;
56517;SDS011;42419;48.760;2.322;2023-03-20T11:36:28;7.40;;;3.00;;
56517;SDS011;42419;48.760;2.322;2023-03-20T11:38:58;6.30;;;2.73;;
56517;SDS011;42419;48.760;2.322;2023-03-20T11:41:32;6.50;;;2.40;;
56517;SDS011;42419;48.760;2.322;2023-03-20T11:43:57;6.23;;;2.60;;
56517;SDS011;42419;48.760;2.322;2023-03-20T11:46:23;3.80;;;2.77;;
56517;SDS011;42419;48.760;2.322;2023-03-20T11:51:52;3.83;;;2.37;;
56517;SDS011;42419;48.760;2.322;2023-03-20T11:54:20;7.93;;;2.90;;
56517;SDS011;42419;48.760;2.322;2023-03-20T11:56:52;5.00;;;2.77;;
56517;SDS011;42419;48.760;2.322;2023-03-20T11:59:24;4.20;;;2.43;;
56517;SDS011;42419;48.760;2.322;2023-03-20T12:01:54;6.20;;;2.77;;
56517;SDS011;42419;48.760;2.322;2023-03-20T12:07:21;3.73;;;2.07;;
56517;SDS011;42419;48.760;2.322;2023-03-20T12:09:51;5.30;;;2.93;;
56517;SDS011;42419;48.760;2.322;2023-03-20T12:17:41;7.40;;;2.17;;
56517;SDS011;42419;48.760;2.322;2023-03-20T12:20:25;4.23;;;2.60;;
56517;SDS011;42419;48.760;2.322;2023-03-20T12:25:25;9.73;;;3.03;;
56517;SDS011;42419;48.760;2.322;2023-03-20T12:28:13;3.23;;;2.10;;
56517;SDS011;42419;48.760;2.322;2023-03-20T12:36:24;6.57;;;2.63;;
56517;SDS011;42419;48.760;2.322;2023-03-20T12:38:55;5.93;;;2.67;;
56517;SDS011;42419;48.760;2.322;2023-03-20T12:52:59;5.07;;;2.70;;
56517;SDS011;42419;48.760;2.322;2023-03-20T13:01:21;7.80;;;2.60;;
56517;SDS011;42419;48.760;2.322;2023-03-20T13:09:25;6.73;;;2.00;;
56517;SDS011;42419;48.760;2.322;2023-03-20T13:12:18;5.27;;;2.27;;
56517;SDS011;42419;48.760;2.322;2023-03-20T13:21:02;4.30;;;2.40;;
56517;SDS011;42419;48.760;2.322;2023-03-20T13:31:56;8.17;;;2.57;;
56517;SDS011;42419;48.760;2.322;2023-03-20T13:41:53;3.53;;;2.57;;
56517;SDS011;42419;48.760;2.322;2023-03-20T13:44:20;6.23;;;2.57;;
56517;SDS011;42419;48.760;2.322;2023-03-20T13:46:49;6.90;;;2.60;;
56517;SDS011;42419;48.760;2.322;2023-03-20T13:51:58;3.30;;;2.37;;
56517;SDS011;42419;48.760;2.322;2023-03-20T13:54:37;4.30;;;2.10;;
56517;SDS011;42419;48.760;2.322;2023-03-20T13:57:21;4.77;;;1.90;;
56517;SDS011;42419;48.760;2.322;2023-03-20T13:59:57;4.33;;;2.57;;
56517;SDS011;42419;48.760;2.322;2023-03-20T14:02:32;7.63;;;2.30;;
56517;SDS011;42419;48.760;2.322;2023-03-20T14:05:14;6.27;;;2.33;;
56517;SDS011;42419;48.760;2.322;2023-03-20T14:07:43;6.13;;;2.60;;
56517;SDS011;42419;48.760;2.322;2023-03-20T14:12:47;10.40;;;3.60;;
56517;SDS011;42419;48.760;2.322;2023-03-20T14:15:20;32.47;;;9.07;;
56517;SDS011;42419;48.760;2.322;2023-03-20T14:17:46;33.20;;;10.50;;
56517;SDS011;42419;48.760;2.322;2023-03-20T14:20:19;39.80;;;10.77;;
56517;SDS011;42419;48.760;2.322;2023-03-20T14:22:53;52.23;;;15.63;;
56517;SDS011;42419;48.760;2.322;2023-03-20T14:25:21;45.43;;;15.33;;
56517;SDS011;42419;48.760;2.322;2023-03-20T14:27:55;51.93;;;15.73;;
56517;SDS011;42419;48.760;2.322;2023-03-20T14:35:50;36.33;;;13.87;;
56517;SDS011;42419;48.760;2.322;2023-03-20T14:38:48;40.83;;;13.57;;
56517;SDS011;42419;48.760;2.322;2023-03-20T14:47:01;28.53;;;12.33;;
56517;SDS011;42419;48.760;2.322;2023-03-20T14:55:12;57.07;;;31.30;;
56517;SDS011;42419;48.760;2.322;2023-03-20T14:57:41;64.10;;;32.53;;
56517;SDS011;42419;48.760;2.322;2023-03-20T15:00:21;58.57;;;28.37;;
56517;SDS011;42419;48.760;2.322;2023-03-20T15:02:53;55.53;;;24.97;;
56517;SDS011;42419;48.760;2.322;2023-03-20T15:05:31;40.00;;;22.67;;
56517;SDS011;42419;48.760;2.322;2023-03-20T15:08:06;43.73;;;20.37;;
56517;SDS011;42419;48.760;2.322;2023-03-20T15:10:34;32.43;;;18.43;;
56517;SDS011;42419;48.760;2.322;2023-03-20T15:13:03;32.70;;;17.20;;
56517;SDS011;42419;48.760;2.322;2023-03-20T15:15:30;33.03;;;17.00;;
56517;SDS011;42419;48.760;2.322;2023-03-20T15:18:01;28.70;;;15.10;;
56517;SDS011;42419;48.760;2.322;2023-03-20T15:20:29;28.97;;;14.97;;
56517;SDS011;42419;48.760;2.322;2023-03-20T15:22:56;23.67;;;13.80;;
56517;SDS011;42419;48.760;2.322;2023-03-20T15:25:27;23.83;;;12.40;;
56517;SDS011;42419;48.760;2.322;2023-03-20T15:27:57;26.67;;;13.10;;
56517;SDS011;42419;48.760;2.322;2023-03-20T15:30:23;21.77;;;10.50;;
56517;SDS011;42419;48.760;2.322;2023-03-20T15:32:50;23.97;;;10.60;;
56517;SDS011;42419;48.760;2.322;2023-03-20T15:35:18;19.97;;;9.40;;
56517;SDS011;42419;48.760;2.322;2023-03-20T15:37:47;15.70;;;8.90;;
56517;SDS011;42419;48.760;2.322;2023-03-20T15:40:23;17.20;;;8.53;;
56517;SDS011;42419;48.760;2.322;2023-03-20T15:43:03;15.13;;;7.83;;
56517;SDS011;42419;48.760;2.322;2023-03-20T15:45:38;18.47;;;8.57;;
56517;SDS011;42419;48.760;2.322;2023-03-20T15:48:16;18.07;;;7.60;;
56517;SDS011;42419;48.760;2.322;2023-03-20T15:50:44;17.33;;;7.43;;
56517;SDS011;42419;48.760;2.322;2023-03-20T15:53:17;18.30;;;7.63;;
56517;SDS011;42419;48.760;2.322;2023-03-20T15:55:52;13.87;;;6.90;;
56517;SDS011;42419;48.760;2.322;2023-03-20T15:58:22;10.67;;;6.80;;
56517;SDS011;42419;48.760;2.322;2023-03-20T16:00:51;14.27;;;6.80;;
56517;SDS011;42419;48.760;2.322;2023-03-20T16:03:17;16.77;;;6.20;;
56517;SDS011;42419;48.760;2.322;2023-03-20T16:05:46;11.20;;;6.07;;
56517;SDS011;42419;48.760;2.322;2023-03-20T16:08:24;8.33;;;5.80;;
56517;SDS011;42419;48.760;2.322;2023-03-20T16:10:56;8.50;;;5.83;;
56517;SDS011;42419;48.760;2.322;2023-03-20T16:13:23;10.23;;;6.57;;
56517;SDS011;42419;48.760;2.322;2023-03-20T16:15:50;11.93;;;5.20;;
56517;SDS011;42419;48.760;2.322;2023-03-20T16:18:17;9.70;;;5.00;;
56517;SDS011;42419;48.760;2.322;2023-03-20T16:20:46;9.70;;;4.60;;
56517;SDS011;42419;48.760;2.322;2023-03-20T16:23:25;8.47;;;4.40;;
56517;SDS011;42419;48.760;2.322;2023-03-20T16:25:55;7.80;;;4.30;;
56517;SDS011;42419;48.760;2.322;2023-03-20T16:28:24;9.30;;;5.17;;
56517;SDS011;42419;48.760;2.322;2023-03-20T16:30:51;8.27;;;4.83;;
56517;SDS011;42419;48.760;2.322;2023-03-20T16:33:17;9.10;;;4.77;;
56517;SDS011;42419;48.760;2.322;2023-03-20T16:35:43;8.97;;;4.00;;
56517;SDS011;42419;48.760;2.322;2023-03-20T16:38:25;9.90;;;4.50;;
56517;SDS011;42419;48.760;2.322;2023-03-20T16:40:53;6.87;;;3.77;;
56517;SDS011;42419;48.760;2.322;2023-03-20T16:43:25;8.50;;;3.37;;
56517;SDS011;42419;48.760;2.322;2023-03-20T16:45:54;6.13;;;3.57;;
56517;SDS011;42419;48.760;2.322;2023-03-20T16:50:47;5.40;;;3.53;;
56517;SDS011;42419;48.760;2.322;2023-03-20T16:53:17;5.80;;;3.23;;
56517;SDS011;42419;48.760;2.322;2023-03-20T16:55:45;6.70;;;3.53;;
56517;SDS011;42419;48.760;2.322;2023-03-20T16:58:17;6.03;;;3.23;;
56517;SDS011;42419;48.760;2.322;2023-03-20T17:01:05;5.33;;;3.30;;
56517;SDS011;42419;48.760;2.322;2023-03-20T17:03:35;4.53;;;3.30;;
56517;SDS011;42419;48.760;2.322;2023-03-20T17:08:45;5.77;;;3.50;;
56517;SDS011;42419;48.760;2.322;2023-03-20T17:11:15;4.60;;;2.80;;
56517;SDS011;42419;48.760;2.322;2023-03-20T17:13:53;5.53;;;3.03;;
56517;SDS011;42419;48.760;2.322;2023-03-20T17:16:19;5.90;;;3.60;;